sensor_id;sensor_type;location;lat;lon;timestamp;temperature;humidity
18682;DHT22;9471;51.168;4.154;2022-09-24T00:01:06;16.00;99.90
18682;DHT22;9471;51.168;4.154;2022-09-24T00:03:33;16.00;99.90
18682;DHT22;9471;51.168;4.154;2022-09-24T00:06:01;15.90;99.90
18682;DHT22;9471;51.168;4.154;2022-09-24T00:08:28;15.90;99.90
18682;DHT22;9471;51.168;4.154;2022-09-24T00:10:55;15.90;99.90
18682;DHT22;9471;51.168;4.154;2022-09-24T00:13:24;15.90;99.90
18682;DHT22;9471;51.168;4.154;2022-09-24T00:15:51;15.80;99.90
18682;DHT22;9471;51.168;4.154;2022-09-24T00:18:18;15.60;99.90
18682;DHT22;9471;51.168;4.154;2022-09-24T00:20:47;15.70;99.90
18682;DHT22;9471;51.168;4.154;2022-09-24T00:23:14;15.80;99.90
18682;DHT22;9471;51.168;4.154;2022-09-24T00:25:41;15.70;99.90
18682;DHT22;9471;51.168;4.154;2022-09-24T00:28:28;15.60;99.90
18682;DHT22;9471;51.168;4.154;2022-09-24T00:30:56;15.80;99.90
18682;DHT22;9471;51.168;4.154;2022-09-24T00:33:23;15.80;99.90
18682;DHT22;9471;51.168;4.154;2022-09-24T00:35:50;15.90;99.90
18682;DHT22;9471;51.168;4.154;2022-09-24T00:38:17;15.90;99.90
18682;DHT22;9471;51.168;4.154;2022-09-24T00:40:45;15.80;99.90
18682;DHT22;9471;51.168;4.154;2022-09-24T00:43:23;15.90;99.90
18682;DHT22;9471;51.168;4.154;2022-09-24T00:45:53;15.90;99.90
18682;DHT22;9471;51.168;4.154;2022-09-24T00:48:21;15.70;99.90
18682;DHT22;9471;51.168;4.154;2022-09-24T00:50:48;15.70;99.90
18682;DHT22;9471;51.168;4.154;2022-09-24T00:53:18;15.70;99.90
18682;DHT22;9471;51.168;4.154;2022-09-24T00:55:48;15.80;99.90
18682;DHT22;9471;51.168;4.154;2022-09-24T00:58:19;15.80;99.90
18682;DHT22;9471;51.168;4.154;2022-09-24T01:00:48;15.80;99.90
18682;DHT22;9471;51.168;4.154;2022-09-24T01:03:22;15.80;99.90
18682;DHT22;9471;51.168;4.154;2022-09-24T01:05:50;15.80;99.90
18682;DHT22;9471;51.168;4.154;2022-09-24T01:08:18;15.80;99.90
18682;DHT22;9471;51.168;4.154;2022-09-24T01:10:57;15.80;99.90
18682;DHT22;9471;51.168;4.154;2022-09-24T01:13:35;15.90;99.90
18682;DHT22;9471;51.168;4.154;2022-09-24T01:16:09;15.70;99.90
18682;DHT22;9471;51.168;4.154;2022-09-24T01:18:44;15.80;99.90
18682;DHT22;9471;51.168;4.154;2022-09-24T01:21:26;15.60;99.90
18682;DHT22;9471;51.168;4.154;2022-09-24T01:27:05;15.60;99.90
18682;DHT22;9471;51.168;4.154;2022-09-24T01:29:58;15.50;99.90
18682;DHT22;9471;51.168;4.154;2022-09-24T01:32:32;15.60;99.90
18682;DHT22;9471;51.168;4.154;2022-09-24T01:35:05;15.50;99.90
18682;DHT22;9471;51.168;4.154;2022-09-24T01:37:41;15.40;99.90
18682;DHT22;9471;51.168;4.154;2022-09-24T01:40:10;15.40;99.90
18682;DHT22;9471;51.168;4.154;2022-09-24T01:42:39;15.30;99.90
18682;DHT22;9471;51.168;4.154;2022-09-24T01:45:10;15.40;99.90
18682;DHT22;9471;51.168;4.154;2022-09-24T01:47:39;15.10;99.90
18682;DHT22;9471;51.168;4.154;2022-09-24T01:50:07;14.90;99.90
18682;DHT22;9471;51.168;4.154;2022-09-24T01:52:40;15.00;99.90
18682;DHT22;9471;51.168;4.154;2022-09-24T01:55:12;14.50;99.90
18682;DHT22;9471;51.168;4.154;2022-09-24T01:57:43;14.50;99.90
18682;DHT22;9471;51.168;4.154;2022-09-24T02:00:14;14.20;99.90
18682;DHT22;9471;51.168;4.154;2022-09-24T02:02:45;14.40;99.90
18682;DHT22;9471;51.168;4.154;2022-09-24T02:05:18;14.40;99.90
18682;DHT22;9471;51.168;4.154;2022-09-24T02:07:53;14.50;99.90
18682;DHT22;9471;51.168;4.154;2022-09-24T02:10:24;14.60;99.90
18682;DHT22;9471;51.168;4.154;2022-09-24T02:12:55;14.70;99.90
18682;DHT22;9471;51.168;4.154;2022-09-24T02:15:27;14.80;99.90
18682;DHT22;9471;51.168;4.154;2022-09-24T02:17:57;14.80;99.90
18682;DHT22;9471;51.168;4.154;2022-09-24T02:20:26;14.90;99.90
18682;DHT22;9471;51.168;4.154;2022-09-24T02:22:54;15.00;99.90
18682;DHT22;9471;51.168;4.154;2022-09-24T02:25:27;14.90;99.90
18682;DHT22;9471;51.168;4.154;2022-09-24T02:27:55;14.80;99.90
18682;DHT22;9471;51.168;4.154;2022-09-24T02:30:22;14.90;99.90
18682;DHT22;9471;51.168;4.154;2022-09-24T02:32:52;14.80;99.90
18682;DHT22;9471;51.168;4.154;2022-09-24T02:35:20;14.90;99.90
18682;DHT22;9471;51.168;4.154;2022-09-24T02:37:46;14.80;99.90
18682;DHT22;9471;51.168;4.154;2022-09-24T02:40:13;14.80;99.90
18682;DHT22;9471;51.168;4.154;2022-09-24T02:42:42;14.80;99.90
18682;DHT22;9471;51.168;4.154;2022-09-24T02:45:10;14.60;99.90
18682;DHT22;9471;51.168;4.154;2022-09-24T02:47:37;14.70;99.90
18682;DHT22;9471;51.168;4.154;2022-09-24T02:50:06;14.70;99.90
18682;DHT22;9471;51.168;4.154;2022-09-24T02:52:33;14.60;99.90
18682;DHT22;9471;51.168;4.154;2022-09-24T02:55:01;14.60;99.90
18682;DHT22;9471;51.168;4.154;2022-09-24T02:57:28;14.70;99.90
18682;DHT22;9471;51.168;4.154;2022-09-24T02:59:57;14.80;99.90
18682;DHT22;9471;51.168;4.154;2022-09-24T03:02:24;14.80;99.90
18682;DHT22;9471;51.168;4.154;2022-09-24T03:04:54;14.80;99.90
18682;DHT22;9471;51.168;4.154;2022-09-24T03:07:22;14.80;99.90
18682;DHT22;9471;51.168;4.154;2022-09-24T03:09:49;14.70;99.90
18682;DHT22;9471;51.168;4.154;2022-09-24T03:12:16;14.70;99.90
18682;DHT22;9471;51.168;4.154;2022-09-24T03:14:43;14.80;99.90
18682;DHT22;9471;51.168;4.154;2022-09-24T03:17:10;14.70;99.90
18682;DHT22;9471;51.168;4.154;2022-09-24T03:19:37;14.70;99.90
18682;DHT22;9471;51.168;4.154;2022-09-24T03:22:03;14.80;99.90
18682;DHT22;9471;51.168;4.154;2022-09-24T03:24:32;14.90;99.90
18682;DHT22;9471;51.168;4.154;2022-09-24T03:26:59;14.90;99.90
18682;DHT22;9471;51.168;4.154;2022-09-24T03:29:26;14.90;99.90
18682;DHT22;9471;51.168;4.154;2022-09-24T03:32:07;15.00;99.90
18682;DHT22;9471;51.168;4.154;2022-09-24T03:34:34;15.00;99.90
18682;DHT22;9471;51.168;4.154;2022-09-24T03:37:00;14.90;99.90
18682;DHT22;9471;51.168;4.154;2022-09-24T03:39:27;14.80;99.90
18682;DHT22;9471;51.168;4.154;2022-09-24T03:41:56;14.80;99.90
18682;DHT22;9471;51.168;4.154;2022-09-24T03:44:23;14.70;99.90
18682;DHT22;9471;51.168;4.154;2022-09-24T03:46:50;14.70;99.90
18682;DHT22;9471;51.168;4.154;2022-09-24T03:49:17;14.80;99.90
18682;DHT22;9471;51.168;4.154;2022-09-24T03:51:44;14.70;99.90
18682;DHT22;9471;51.168;4.154;2022-09-24T03:54:11;14.80;99.90
18682;DHT22;9471;51.168;4.154;2022-09-24T03:56:38;14.90;99.90
18682;DHT22;9471;51.168;4.154;2022-09-24T03:59:07;14.90;99.90
18682;DHT22;9471;51.168;4.154;2022-09-24T04:01:35;14.70;99.90
18682;DHT22;9471;51.168;4.154;2022-09-24T04:04:03;14.70;99.90
18682;DHT22;9471;51.168;4.154;2022-09-24T04:06:31;14.80;99.90
18682;DHT22;9471;51.168;4.154;2022-09-24T04:08:58;14.90;99.90
18682;DHT22;9471;51.168;4.154;2022-09-24T04:11:25;14.70;99.90
18682;DHT22;9471;51.168;4.154;2022-09-24T04:13:52;14.80;99.90
18682;DHT22;9471;51.168;4.154;2022-09-24T04:16:20;14.80;99.90
18682;DHT22;9471;51.168;4.154;2022-09-24T04:18:47;14.80;99.90
18682;DHT22;9471;51.168;4.154;2022-09-24T04:21:15;14.60;99.90
18682;DHT22;9471;51.168;4.154;2022-09-24T04:23:42;14.60;99.90
18682;DHT22;9471;51.168;4.154;2022-09-24T04:26:09;14.80;99.90
18682;DHT22;9471;51.168;4.154;2022-09-24T04:28:37;14.80;99.90
18682;DHT22;9471;51.168;4.154;2022-09-24T04:31:04;14.80;99.90
18682;DHT22;9471;51.168;4.154;2022-09-24T04:33:32;14.80;99.90
18682;DHT22;9471;51.168;4.154;2022-09-24T04:35:59;14.70;99.90
18682;DHT22;9471;51.168;4.154;2022-09-24T04:38:26;14.80;99.90
18682;DHT22;9471;51.168;4.154;2022-09-24T04:40:53;14.90;99.90
18682;DHT22;9471;51.168;4.154;2022-09-24T04:43:19;14.80;99.90
18682;DHT22;9471;51.168;4.154;2022-09-24T04:45:46;14.70;99.90
18682;DHT22;9471;51.168;4.154;2022-09-24T04:48:13;14.80;99.90
18682;DHT22;9471;51.168;4.154;2022-09-24T04:50:42;14.80;99.90
18682;DHT22;9471;51.168;4.154;2022-09-24T04:53:09;14.80;99.90
18682;DHT22;9471;51.168;4.154;2022-09-24T04:55:36;14.90;99.90
18682;DHT22;9471;51.168;4.154;2022-09-24T04:58:04;14.60;99.90
18682;DHT22;9471;51.168;4.154;2022-09-24T05:00:31;14.70;99.90
18682;DHT22;9471;51.168;4.154;2022-09-24T05:02:59;14.90;99.90
18682;DHT22;9471;51.168;4.154;2022-09-24T05:05:28;14.80;99.90
18682;DHT22;9471;51.168;4.154;2022-09-24T05:07:57;14.70;99.90
18682;DHT22;9471;51.168;4.154;2022-09-24T05:10:28;14.70;99.90
18682;DHT22;9471;51.168;4.154;2022-09-24T05:12:56;14.70;99.90
18682;DHT22;9471;51.168;4.154;2022-09-24T05:15:23;14.90;99.90
18682;DHT22;9471;51.168;4.154;2022-09-24T05:17:50;14.90;99.90
18682;DHT22;9471;51.168;4.154;2022-09-24T05:20:17;14.80;99.90
18682;DHT22;9471;51.168;4.154;2022-09-24T05:22:45;14.80;99.90
18682;DHT22;9471;51.168;4.154;2022-09-24T05:25:14;14.90;99.90
18682;DHT22;9471;51.168;4.154;2022-09-24T05:27:46;15.00;99.90
18682;DHT22;9471;51.168;4.154;2022-09-24T05:30:13;15.00;99.90
18682;DHT22;9471;51.168;4.154;2022-09-24T05:32:40;15.00;99.90
18682;DHT22;9471;51.168;4.154;2022-09-24T05:35:07;15.00;99.90
18682;DHT22;9471;51.168;4.154;2022-09-24T05:37:35;15.10;99.90
18682;DHT22;9471;51.168;4.154;2022-09-24T05:40:03;15.10;99.90
18682;DHT22;9471;51.168;4.154;2022-09-24T05:42:45;15.20;99.90
18682;DHT22;9471;51.168;4.154;2022-09-24T05:45:13;15.20;99.90
18682;DHT22;9471;51.168;4.154;2022-09-24T05:47:40;15.10;99.90
18682;DHT22;9471;51.168;4.154;2022-09-24T05:50:07;15.00;99.90
18682;DHT22;9471;51.168;4.154;2022-09-24T05:52:34;15.00;99.90
18682;DHT22;9471;51.168;4.154;2022-09-24T05:55:03;15.10;99.90
18682;DHT22;9471;51.168;4.154;2022-09-24T05:57:30;15.20;99.90
18682;DHT22;9471;51.168;4.154;2022-09-24T05:59:58;15.20;99.90
18682;DHT22;9471;51.168;4.154;2022-09-24T06:02:25;15.20;99.90
18682;DHT22;9471;51.168;4.154;2022-09-24T06:04:52;15.20;99.90
18682;DHT22;9471;51.168;4.154;2022-09-24T06:07:19;15.10;99.90
18682;DHT22;9471;51.168;4.154;2022-09-24T06:09:47;15.20;99.90
18682;DHT22;9471;51.168;4.154;2022-09-24T06:12:13;15.10;99.90
18682;DHT22;9471;51.168;4.154;2022-09-24T06:14:42;15.10;99.90
18682;DHT22;9471;51.168;4.154;2022-09-24T06:17:10;15.10;99.90
18682;DHT22;9471;51.168;4.154;2022-09-24T06:19:37;15.00;99.90
18682;DHT22;9471;51.168;4.154;2022-09-24T06:22:04;15.00;99.90
18682;DHT22;9471;51.168;4.154;2022-09-24T06:24:31;15.00;99.90
18682;DHT22;9471;51.168;4.154;2022-09-24T06:26:59;15.10;99.90
18682;DHT22;9471;51.168;4.154;2022-09-24T06:29:26;15.10;99.90
18682;DHT22;9471;51.168;4.154;2022-09-24T06:31:53;15.00;99.90
18682;DHT22;9471;51.168;4.154;2022-09-24T06:34:21;15.10;99.90
18682;DHT22;9471;51.168;4.154;2022-09-24T06:36:52;15.10;99.90
18682;DHT22;9471;51.168;4.154;2022-09-24T06:39:19;15.10;99.90
18682;DHT22;9471;51.168;4.154;2022-09-24T06:41:51;15.30;99.90
18682;DHT22;9471;51.168;4.154;2022-09-24T06:44:18;15.30;99.90
18682;DHT22;9471;51.168;4.154;2022-09-24T06:46:45;15.50;99.90
18682;DHT22;9471;51.168;4.154;2022-09-24T06:49:12;15.40;99.90
18682;DHT22;9471;51.168;4.154;2022-09-24T06:51:41;15.30;99.90
18682;DHT22;9471;51.168;4.154;2022-09-24T06:54:07;15.40;99.90
18682;DHT22;9471;51.168;4.154;2022-09-24T06:56:34;15.40;99.90
18682;DHT22;9471;51.168;4.154;2022-09-24T06:59:01;15.50;99.90
18682;DHT22;9471;51.168;4.154;2022-09-24T07:01:28;15.20;99.90
18682;DHT22;9471;51.168;4.154;2022-09-24T07:03:55;15.30;99.90
18682;DHT22;9471;51.168;4.154;2022-09-24T07:06:24;15.30;99.90
18682;DHT22;9471;51.168;4.154;2022-09-24T07:09:13;15.40;99.90
18682;DHT22;9471;51.168;4.154;2022-09-24T07:11:40;15.50;99.90
18682;DHT22;9471;51.168;4.154;2022-09-24T07:14:09;15.50;99.90
18682;DHT22;9471;51.168;4.154;2022-09-24T07:16:36;15.50;99.90
18682;DHT22;9471;51.168;4.154;2022-09-24T07:19:03;15.50;99.90
18682;DHT22;9471;51.168;4.154;2022-09-24T07:21:30;15.50;99.90
18682;DHT22;9471;51.168;4.154;2022-09-24T07:23:57;15.60;99.90
18682;DHT22;9471;51.168;4.154;2022-09-24T07:26:27;15.60;99.90
18682;DHT22;9471;51.168;4.154;2022-09-24T07:28:54;15.70;99.90
18682;DHT22;9471;51.168;4.154;2022-09-24T07:31:21;15.70;99.90
18682;DHT22;9471;51.168;4.154;2022-09-24T07:33:48;15.60;99.90
18682;DHT22;9471;51.168;4.154;2022-09-24T07:36:16;15.70;99.90
18682;DHT22;9471;51.168;4.154;2022-09-24T07:38:43;15.70;99.90
18682;DHT22;9471;51.168;4.154;2022-09-24T07:41:12;15.70;99.90
18682;DHT22;9471;51.168;4.154;2022-09-24T07:43:40;15.70;99.90
18682;DHT22;9471;51.168;4.154;2022-09-24T07:46:08;15.80;99.90
18682;DHT22;9471;51.168;4.154;2022-09-24T07:48:35;15.80;99.90
18682;DHT22;9471;51.168;4.154;2022-09-24T07:51:02;15.70;99.90
18682;DHT22;9471;51.168;4.154;2022-09-24T07:53:30;15.80;99.90
18682;DHT22;9471;51.168;4.154;2022-09-24T07:55:58;15.90;99.90
18682;DHT22;9471;51.168;4.154;2022-09-24T07:58:25;15.90;99.90
18682;DHT22;9471;51.168;4.154;2022-09-24T08:00:56;16.00;99.90
18682;DHT22;9471;51.168;4.154;2022-09-24T08:03:23;16.00;99.90
18682;DHT22;9471;51.168;4.154;2022-09-24T08:05:50;16.00;99.90
18682;DHT22;9471;51.168;4.154;2022-09-24T08:08:21;16.10;99.90
18682;DHT22;9471;51.168;4.154;2022-09-24T08:10:48;16.00;99.90
18682;DHT22;9471;51.168;4.154;2022-09-24T08:13:15;16.00;99.90
18682;DHT22;9471;51.168;4.154;2022-09-24T08:15:42;16.00;99.90
18682;DHT22;9471;51.168;4.154;2022-09-24T08:18:11;15.90;99.90
18682;DHT22;9471;51.168;4.154;2022-09-24T08:20:38;16.00;99.90
18682;DHT22;9471;51.168;4.154;2022-09-24T08:23:06;15.90;99.90
18682;DHT22;9471;51.168;4.154;2022-09-24T08:25:34;16.00;99.90
18682;DHT22;9471;51.168;4.154;2022-09-24T08:28:02;16.00;99.90
18682;DHT22;9471;51.168;4.154;2022-09-24T08:30:29;16.10;99.90
18682;DHT22;9471;51.168;4.154;2022-09-24T08:32:56;16.20;99.90
18682;DHT22;9471;51.168;4.154;2022-09-24T08:35:25;16.20;99.90
18682;DHT22;9471;51.168;4.154;2022-09-24T08:37:52;16.20;99.90
18682;DHT22;9471;51.168;4.154;2022-09-24T08:40:22;16.20;99.90
18682;DHT22;9471;51.168;4.154;2022-09-24T08:42:52;16.20;99.90
18682;DHT22;9471;51.168;4.154;2022-09-24T08:45:21;16.30;99.90
18682;DHT22;9471;51.168;4.154;2022-09-24T08:48:10;16.30;99.90
18682;DHT22;9471;51.168;4.154;2022-09-24T08:50:45;16.40;99.90
18682;DHT22;9471;51.168;4.154;2022-09-24T08:53:16;16.40;99.90
18682;DHT22;9471;51.168;4.154;2022-09-24T08:55:48;16.50;99.90
18682;DHT22;9471;51.168;4.154;2022-09-24T08:58:30;16.50;99.90
18682;DHT22;9471;51.168;4.154;2022-09-24T09:01:04;16.40;99.90
18682;DHT22;9471;51.168;4.154;2022-09-24T09:03:35;16.30;99.90
18682;DHT22;9471;51.168;4.154;2022-09-24T09:06:10;16.30;99.90
18682;DHT22;9471;51.168;4.154;2022-09-24T09:08:44;16.20;99.90
18682;DHT22;9471;51.168;4.154;2022-09-24T09:11:15;16.10;99.90
18682;DHT22;9471;51.168;4.154;2022-09-24T09:13:47;16.20;99.90
18682;DHT22;9471;51.168;4.154;2022-09-24T09:16:22;16.40;99.90
18682;DHT22;9471;51.168;4.154;2022-09-24T09:18:52;16.40;99.90
18682;DHT22;9471;51.168;4.154;2022-09-24T09:21:27;16.50;99.90
18682;DHT22;9471;51.168;4.154;2022-09-24T09:23:59;16.50;99.90
18682;DHT22;9471;51.168;4.154;2022-09-24T09:26:27;16.60;99.90
18682;DHT22;9471;51.168;4.154;2022-09-24T09:28:57;16.60;99.90
18682;DHT22;9471;51.168;4.154;2022-09-24T09:31:34;16.60;99.90
18682;DHT22;9471;51.168;4.154;2022-09-24T09:34:14;16.70;99.90
18682;DHT22;9471;51.168;4.154;2022-09-24T09:37:00;16.70;99.90
18682;DHT22;9471;51.168;4.154;2022-09-24T09:39:37;16.70;99.90
18682;DHT22;9471;51.168;4.154;2022-09-24T09:42:19;16.70;99.90
18682;DHT22;9471;51.168;4.154;2022-09-24T09:44:50;16.80;99.90
18682;DHT22;9471;51.168;4.154;2022-09-24T09:47:24;16.80;99.90
18682;DHT22;9471;51.168;4.154;2022-09-24T09:49:55;16.50;99.90
18682;DHT22;9471;51.168;4.154;2022-09-24T09:52:27;16.40;99.90
18682;DHT22;9471;51.168;4.154;2022-09-24T09:54:55;16.60;99.90
18682;DHT22;9471;51.168;4.154;2022-09-24T09:57:24;16.70;99.90
18682;DHT22;9471;51.168;4.154;2022-09-24T09:59:52;16.70;99.90
18682;DHT22;9471;51.168;4.154;2022-09-24T10:02:26;16.80;99.90
18682;DHT22;9471;51.168;4.154;2022-09-24T10:04:55;16.90;99.90
18682;DHT22;9471;51.168;4.154;2022-09-24T10:07:24;16.90;99.90
18682;DHT22;9471;51.168;4.154;2022-09-24T10:09:59;17.00;99.90
18682;DHT22;9471;51.168;4.154;2022-09-24T10:12:27;17.10;99.90
18682;DHT22;9471;51.168;4.154;2022-09-24T10:14:59;17.20;99.90
18682;DHT22;9471;51.168;4.154;2022-09-24T10:17:31;17.30;99.90
18682;DHT22;9471;51.168;4.154;2022-09-24T10:20:00;17.30;99.90
18682;DHT22;9471;51.168;4.154;2022-09-24T10:22:29;17.30;99.90
18682;DHT22;9471;51.168;4.154;2022-09-24T10:24:58;17.30;99.90
18682;DHT22;9471;51.168;4.154;2022-09-24T10:27:31;17.30;99.90
18682;DHT22;9471;51.168;4.154;2022-09-24T10:30:00;17.30;99.90
18682;DHT22;9471;51.168;4.154;2022-09-24T10:32:45;17.30;99.90
18682;DHT22;9471;51.168;4.154;2022-09-24T10:35:22;17.20;99.90
18682;DHT22;9471;51.168;4.154;2022-09-24T10:37:51;17.10;99.90
18682;DHT22;9471;51.168;4.154;2022-09-24T10:40:21;17.10;99.90
18682;DHT22;9471;51.168;4.154;2022-09-24T10:42:58;17.10;99.90
18682;DHT22;9471;51.168;4.154;2022-09-24T10:48:15;17.00;99.90
18682;DHT22;9471;51.168;4.154;2022-09-24T10:50:47;17.00;99.90
18682;DHT22;9471;51.168;4.154;2022-09-24T10:53:28;17.00;99.90
18682;DHT22;9471;51.168;4.154;2022-09-24T10:56:03;16.90;99.90
18682;DHT22;9471;51.168;4.154;2022-09-24T10:58:59;16.90;99.90
18682;DHT22;9471;51.168;4.154;2022-09-24T11:01:34;16.90;99.90
18682;DHT22;9471;51.168;4.154;2022-09-24T11:04:25;16.80;99.90
18682;DHT22;9471;51.168;4.154;2022-09-24T11:07:23;16.70;99.90
18682;DHT22;9471;51.168;4.154;2022-09-24T11:09:59;16.70;99.90
18682;DHT22;9471;51.168;4.154;2022-09-24T11:12:33;16.50;99.90
18682;DHT22;9471;51.168;4.154;2022-09-24T11:15:20;16.40;99.90
18682;DHT22;9471;51.168;4.154;2022-09-24T11:18:07;16.40;99.90
18682;DHT22;9471;51.168;4.154;2022-09-24T11:20:44;16.30;99.90
18682;DHT22;9471;51.168;4.154;2022-09-24T11:23:34;16.30;99.90
18682;DHT22;9471;51.168;4.154;2022-09-24T11:26:13;16.30;99.90
18682;DHT22;9471;51.168;4.154;2022-09-24T11:31:51;16.10;99.90
18682;DHT22;9471;51.168;4.154;2022-09-24T11:34:41;16.10;99.90
18682;DHT22;9471;51.168;4.154;2022-09-24T11:37:23;16.10;99.90
18682;DHT22;9471;51.168;4.154;2022-09-24T11:40:01;16.00;99.90
18682;DHT22;9471;51.168;4.154;2022-09-24T11:42:35;15.90;99.90
18682;DHT22;9471;51.168;4.154;2022-09-24T11:45:32;16.10;99.90
18682;DHT22;9471;51.168;4.154;2022-09-24T11:51:05;16.20;99.90
18682;DHT22;9471;51.168;4.154;2022-09-24T11:53:39;16.20;99.90
18682;DHT22;9471;51.168;4.154;2022-09-24T11:56:12;16.20;99.90
18682;DHT22;9471;51.168;4.154;2022-09-24T11:58:45;16.30;99.90
18682;DHT22;9471;51.168;4.154;2022-09-24T12:01:19;16.30;99.90
18682;DHT22;9471;51.168;4.154;2022-09-24T12:03:54;16.30;99.90
18682;DHT22;9471;51.168;4.154;2022-09-24T12:06:26;16.30;99.90
18682;DHT22;9471;51.168;4.154;2022-09-24T12:08:56;16.30;99.90
18682;DHT22;9471;51.168;4.154;2022-09-24T12:11:31;16.40;99.90
18682;DHT22;9471;51.168;4.154;2022-09-24T12:14:04;16.40;99.90
18682;DHT22;9471;51.168;4.154;2022-09-24T12:16:36;16.50;99.90
18682;DHT22;9471;51.168;4.154;2022-09-24T12:19:08;16.50;99.90
18682;DHT22;9471;51.168;4.154;2022-09-24T12:21:39;16.30;99.90
18682;DHT22;9471;51.168;4.154;2022-09-24T12:24:12;16.40;99.90
18682;DHT22;9471;51.168;4.154;2022-09-24T12:26:41;16.30;99.90
18682;DHT22;9471;51.168;4.154;2022-09-24T12:29:28;16.40;99.90
18682;DHT22;9471;51.168;4.154;2022-09-24T12:32:20;16.30;99.90
18682;DHT22;9471;51.168;4.154;2022-09-24T12:35:15;16.40;99.90
18682;DHT22;9471;51.168;4.154;2022-09-24T12:37:47;16.30;99.90
18682;DHT22;9471;51.168;4.154;2022-09-24T12:40:27;16.30;99.90
18682;DHT22;9471;51.168;4.154;2022-09-24T12:43:01;16.40;99.90
18682;DHT22;9471;51.168;4.154;2022-09-24T12:45:32;16.40;99.90
18682;DHT22;9471;51.168;4.154;2022-09-24T12:48:01;16.40;99.90
18682;DHT22;9471;51.168;4.154;2022-09-24T12:50:30;16.50;99.90
18682;DHT22;9471;51.168;4.154;2022-09-24T12:52:59;16.60;99.90
18682;DHT22;9471;51.168;4.154;2022-09-24T12:55:28;16.50;99.90
18682;DHT22;9471;51.168;4.154;2022-09-24T12:58:00;16.50;99.90
18682;DHT22;9471;51.168;4.154;2022-09-24T13:00:38;16.30;99.90
18682;DHT22;9471;51.168;4.154;2022-09-24T13:03:26;16.40;99.90
18682;DHT22;9471;51.168;4.154;2022-09-24T13:05:53;16.30;99.90
18682;DHT22;9471;51.168;4.154;2022-09-24T13:08:26;16.20;99.90
18682;DHT22;9471;51.168;4.154;2022-09-24T13:11:02;16.30;99.90
18682;DHT22;9471;51.168;4.154;2022-09-24T13:13:32;16.30;99.90
18682;DHT22;9471;51.168;4.154;2022-09-24T13:16:04;16.40;99.90
18682;DHT22;9471;51.168;4.154;2022-09-24T13:18:33;16.40;99.90
18682;DHT22;9471;51.168;4.154;2022-09-24T13:21:04;16.40;99.90
18682;DHT22;9471;51.168;4.154;2022-09-24T13:23:45;16.40;99.90
18682;DHT22;9471;51.168;4.154;2022-09-24T13:26:26;16.30;99.90
18682;DHT22;9471;51.168;4.154;2022-09-24T13:28:55;16.20;99.90
18682;DHT22;9471;51.168;4.154;2022-09-24T13:31:30;16.10;99.90
18682;DHT22;9471;51.168;4.154;2022-09-24T13:34:02;16.20;99.90
18682;DHT22;9471;51.168;4.154;2022-09-24T13:36:38;16.30;99.90
18682;DHT22;9471;51.168;4.154;2022-09-24T13:39:11;16.30;99.90
18682;DHT22;9471;51.168;4.154;2022-09-24T13:41:46;16.30;99.90
18682;DHT22;9471;51.168;4.154;2022-09-24T13:44:18;16.30;99.90
18682;DHT22;9471;51.168;4.154;2022-09-24T13:46:52;16.30;99.90
18682;DHT22;9471;51.168;4.154;2022-09-24T13:49:21;16.30;99.90
18682;DHT22;9471;51.168;4.154;2022-09-24T13:51:56;16.20;99.90
18682;DHT22;9471;51.168;4.154;2022-09-24T13:54:30;16.20;99.90
18682;DHT22;9471;51.168;4.154;2022-09-24T13:57:05;16.20;99.90
18682;DHT22;9471;51.168;4.154;2022-09-24T13:59:35;16.00;99.90
18682;DHT22;9471;51.168;4.154;2022-09-24T14:02:16;16.00;99.90
18682;DHT22;9471;51.168;4.154;2022-09-24T14:04:52;15.90;99.90
18682;DHT22;9471;51.168;4.154;2022-09-24T14:07:19;15.80;99.90
18682;DHT22;9471;51.168;4.154;2022-09-24T14:09:47;15.90;99.90
18682;DHT22;9471;51.168;4.154;2022-09-24T14:12:17;15.90;99.90
18682;DHT22;9471;51.168;4.154;2022-09-24T14:14:52;15.90;99.90
18682;DHT22;9471;51.168;4.154;2022-09-24T14:17:21;15.80;99.90
18682;DHT22;9471;51.168;4.154;2022-09-24T14:19:53;15.70;99.90
18682;DHT22;9471;51.168;4.154;2022-09-24T14:22:22;15.80;99.90
18682;DHT22;9471;51.168;4.154;2022-09-24T14:24:54;15.80;99.90
18682;DHT22;9471;51.168;4.154;2022-09-24T14:27:23;15.90;99.90
18682;DHT22;9471;51.168;4.154;2022-09-24T14:29:53;15.90;99.90
18682;DHT22;9471;51.168;4.154;2022-09-24T14:32:27;15.90;99.90
18682;DHT22;9471;51.168;4.154;2022-09-24T14:34:56;15.90;99.90
18682;DHT22;9471;51.168;4.154;2022-09-24T14:37:26;15.80;99.90
18682;DHT22;9471;51.168;4.154;2022-09-24T14:39:58;15.90;99.90
18682;DHT22;9471;51.168;4.154;2022-09-24T14:42:30;15.80;99.90
18682;DHT22;9471;51.168;4.154;2022-09-24T14:44:58;15.80;99.90
18682;DHT22;9471;51.168;4.154;2022-09-24T14:47:32;15.70;99.90
18682;DHT22;9471;51.168;4.154;2022-09-24T14:50:00;15.80;99.90
18682;DHT22;9471;51.168;4.154;2022-09-24T14:52:30;15.70;99.90
18682;DHT22;9471;51.168;4.154;2022-09-24T14:55:09;15.70;99.90
18682;DHT22;9471;51.168;4.154;2022-09-24T14:57:37;15.80;99.90
18682;DHT22;9471;51.168;4.154;2022-09-24T15:00:19;15.80;99.90
18682;DHT22;9471;51.168;4.154;2022-09-24T15:02:51;15.80;99.90
18682;DHT22;9471;51.168;4.154;2022-09-24T15:05:23;15.80;99.90
18682;DHT22;9471;51.168;4.154;2022-09-24T15:07:51;15.80;99.90
18682;DHT22;9471;51.168;4.154;2022-09-24T15:10:21;15.80;99.90
18682;DHT22;9471;51.168;4.154;2022-09-24T15:12:49;15.80;99.90
18682;DHT22;9471;51.168;4.154;2022-09-24T15:15:27;15.80;99.90
18682;DHT22;9471;51.168;4.154;2022-09-24T15:17:56;15.80;99.90
18682;DHT22;9471;51.168;4.154;2022-09-24T15:20:23;15.80;99.90
18682;DHT22;9471;51.168;4.154;2022-09-24T15:22:53;15.80;99.90
18682;DHT22;9471;51.168;4.154;2022-09-24T15:25:21;15.90;99.90
18682;DHT22;9471;51.168;4.154;2022-09-24T15:27:48;15.90;99.90
18682;DHT22;9471;51.168;4.154;2022-09-24T15:30:18;15.80;99.90
18682;DHT22;9471;51.168;4.154;2022-09-24T15:32:46;15.80;99.90
18682;DHT22;9471;51.168;4.154;2022-09-24T15:35:15;15.60;99.90
18682;DHT22;9471;51.168;4.154;2022-09-24T15:37:43;15.70;99.90
18682;DHT22;9471;51.168;4.154;2022-09-24T15:40:19;15.70;99.90
18682;DHT22;9471;51.168;4.154;2022-09-24T15:42:47;15.80;99.90
18682;DHT22;9471;51.168;4.154;2022-09-24T15:45:16;15.70;99.90
18682;DHT22;9471;51.168;4.154;2022-09-24T15:47:44;15.70;99.90
18682;DHT22;9471;51.168;4.154;2022-09-24T15:50:11;15.70;99.90
18682;DHT22;9471;51.168;4.154;2022-09-24T15:52:43;15.80;99.90
18682;DHT22;9471;51.168;4.154;2022-09-24T15:55:14;15.90;99.90
18682;DHT22;9471;51.168;4.154;2022-09-24T15:57:42;16.00;99.90
18682;DHT22;9471;51.168;4.154;2022-09-24T16:00:16;16.10;99.90
18682;DHT22;9471;51.168;4.154;2022-09-24T16:02:46;16.10;99.90
18682;DHT22;9471;51.168;4.154;2022-09-24T16:05:15;16.20;99.90
18682;DHT22;9471;51.168;4.154;2022-09-24T16:07:44;16.10;99.90
18682;DHT22;9471;51.168;4.154;2022-09-24T16:10:12;16.10;99.90
18682;DHT22;9471;51.168;4.154;2022-09-24T16:12:39;16.20;99.90
18682;DHT22;9471;51.168;4.154;2022-09-24T16:15:07;16.10;99.90
18682;DHT22;9471;51.168;4.154;2022-09-24T16:17:37;16.20;99.90
18682;DHT22;9471;51.168;4.154;2022-09-24T16:20:05;16.40;99.90